This is the latest recevied weather packets stored in our database for station/object KI5NXU. If no packets are shown the sender has not sent any weather packets the latest 10 day(s).
| Time | Temp. | Humidity | Pressure | Rain* | Wind** | Luminosity | Snow |
|---|---|---|---|---|---|---|---|
| 1777693140 | 13.33° C | 88% | 1018.1 hPa | 0 mm | - | 0 W/m² | - |
| 1777692837 | 13.89° C | 88% | 1018.2 hPa | 0 mm | - | 0 W/m² | - |
| 1777692533 | 13.89° C | 88% | 1018.2 hPa | 0 mm | - | 0 W/m² | - |
| 1777692229 | 13.33° C | 89% | 1018.5 hPa | 0 mm | - | 0 W/m² | - |
| 1777691927 | 13.89° C | 86% | 1018.1 hPa | 0 mm | - | 0 W/m² | - |
| 1777691625 | 13.89° C | 86% | 1018.2 hPa | 0 mm | - | 0 W/m² | - |
| 1777691323 | 13.89° C | 85% | 1018.2 hPa | 0 mm | - | 0 W/m² | - |
| 1777691021 | 13.89° C | 86% | 1017.9 hPa | 0 mm | - | 0 W/m² | - |
| 1777690718 | 13.89° C | 86% | 1018 hPa | 0 mm | - | 0 W/m² | - |
| 1777690416 | 13.89° C | 86% | 1017.7 hPa | 0 mm | - | 0 W/m² | - |
| 1777690114 | 14.44° C | 86% | 1017.6 hPa | 0 mm | - | 0 W/m² | - |
| 1777689811 | 14.44° C | 85% | 1017.8 hPa | 0 mm | - | 0 W/m² | - |
| 1777689509 | 14.44° C | 86% | 1018 hPa | 0 mm | - | 0 W/m² | - |
| 1777689206 | 14.44° C | 86% | 1017.7 hPa | 0 mm | - | 0 W/m² | - |
| 1777688904 | 14.44° C | 85% | 1017.6 hPa | 0 mm | - | 0 W/m² | - |
| 1777688600 | 14.44° C | 84% | 1017.5 hPa | 0 mm | - | 0 W/m² | - |
| 1777688297 | 15° C | 83% | 1017.4 hPa | 0 mm | - | 0 W/m² | - |
| 1777687994 | 15° C | 82% | 1017.4 hPa | 0 mm | - | 0 W/m² | - |
| 1777687692 | 15° C | 82% | 1017.3 hPa | 0 mm | - | 0 W/m² | - |
| 1777674358 | 17.22° C | 65% | 1014.9 hPa | 0 mm | - | 138 W/m² | - |
| 1777674055 | 17.22° C | 64% | 1014.5 hPa | 0 mm | - | 131 W/m² | - |
| 1777673752 | 17.22° C | 64% | 1014.9 hPa | 0 mm | - | 146 W/m² | - |
| 1777673151 | 17.22° C | 63% | 1014.9 hPa | 0 mm | - | 176 W/m² | - |
| 1777672844 | 17.22° C | 63% | 1015 hPa | 0 mm | - | 180 W/m² | - |
| 1777672540 | 17.78° C | 63% | 1014.8 hPa | 0 mm | - | 189 W/m² | - |
* Rain latest hour (hover to see other rain measurements)
** Current wind speed in m/s (hover to see current wind gust speed)